sensor_id;sensor_type;location;lat;lon;timestamp;P1;durP1;ratioP1;P2;durP2;ratioP2
42098;SDS011;27758;55.900;8.516;2023-03-14T00:01:24;94.47;;;13.93;;
42098;SDS011;27758;55.900;8.516;2023-03-14T00:03:50;67.97;;;12.90;;
42098;SDS011;27758;55.900;8.516;2023-03-14T00:06:16;74.15;;;14.13;;
42098;SDS011;27758;55.900;8.516;2023-03-14T00:08:43;80.25;;;14.15;;
42098;SDS011;27758;55.900;8.516;2023-03-14T00:11:14;79.53;;;14.32;;
42098;SDS011;27758;55.900;8.516;2023-03-14T00:13:42;86.45;;;14.02;;
42098;SDS011;27758;55.900;8.516;2023-03-14T00:16:11;75.22;;;13.10;;
42098;SDS011;27758;55.900;8.516;2023-03-14T00:18:38;79.68;;;13.13;;
42098;SDS011;27758;55.900;8.516;2023-03-14T00:21:05;67.32;;;12.57;;
42098;SDS011;27758;55.900;8.516;2023-03-14T00:23:32;71.28;;;14.63;;
42098;SDS011;27758;55.900;8.516;2023-03-14T00:26:00;59.55;;;11.65;;
42098;SDS011;27758;55.900;8.516;2023-03-14T00:28:27;62.53;;;11.93;;
42098;SDS011;27758;55.900;8.516;2023-03-14T00:30:53;64.18;;;10.90;;
42098;SDS011;27758;55.900;8.516;2023-03-14T00:33:20;76.07;;;13.70;;
42098;SDS011;27758;55.900;8.516;2023-03-14T00:35:56;65.63;;;12.15;;
42098;SDS011;27758;55.900;8.516;2023-03-14T00:38:24;56.25;;;10.95;;
42098;SDS011;27758;55.900;8.516;2023-03-14T00:40:50;65.05;;;11.30;;
42098;SDS011;27758;55.900;8.516;2023-03-14T00:43:17;58.08;;;11.88;;
42098;SDS011;27758;55.900;8.516;2023-03-14T00:45:44;61.00;;;11.80;;
42098;SDS011;27758;55.900;8.516;2023-03-14T00:48:09;52.95;;;9.52;;
42098;SDS011;27758;55.900;8.516;2023-03-14T00:50:35;56.40;;;11.23;;
42098;SDS011;27758;55.900;8.516;2023-03-14T00:53:01;56.80;;;10.98;;
42098;SDS011;27758;55.900;8.516;2023-03-14T00:55:27;69.88;;;11.68;;
42098;SDS011;27758;55.900;8.516;2023-03-14T00:57:52;52.58;;;11.48;;
42098;SDS011;27758;55.900;8.516;2023-03-14T01:00:18;59.65;;;10.45;;
42098;SDS011;27758;55.900;8.516;2023-03-14T01:02:44;56.85;;;11.57;;
42098;SDS011;27758;55.900;8.516;2023-03-14T01:05:09;55.05;;;12.20;;
42098;SDS011;27758;55.900;8.516;2023-03-14T01:07:35;51.15;;;11.52;;
42098;SDS011;27758;55.900;8.516;2023-03-14T01:10:02;68.70;;;12.88;;
42098;SDS011;27758;55.900;8.516;2023-03-14T01:12:29;52.03;;;11.00;;
42098;SDS011;27758;55.900;8.516;2023-03-14T01:14:54;56.10;;;11.15;;
42098;SDS011;27758;55.900;8.516;2023-03-14T01:17:20;62.03;;;12.32;;
42098;SDS011;27758;55.900;8.516;2023-03-14T01:19:47;54.00;;;10.63;;
42098;SDS011;27758;55.900;8.516;2023-03-14T01:22:13;62.03;;;12.15;;
42098;SDS011;27758;55.900;8.516;2023-03-14T01:24:39;67.07;;;13.32;;
42098;SDS011;27758;55.900;8.516;2023-03-14T01:27:04;71.88;;;11.40;;
42098;SDS011;27758;55.900;8.516;2023-03-14T01:29:30;81.55;;;15.30;;
42098;SDS011;27758;55.900;8.516;2023-03-14T01:31:56;84.88;;;14.23;;
42098;SDS011;27758;55.900;8.516;2023-03-14T01:34:21;79.68;;;15.13;;
42098;SDS011;27758;55.900;8.516;2023-03-14T01:36:47;84.05;;;13.75;;
42098;SDS011;27758;55.900;8.516;2023-03-14T01:39:13;82.65;;;13.88;;
42098;SDS011;27758;55.900;8.516;2023-03-14T01:41:39;79.18;;;14.57;;
42098;SDS011;27758;55.900;8.516;2023-03-14T01:44:05;101.95;;;17.15;;
42098;SDS011;27758;55.900;8.516;2023-03-14T01:46:38;97.87;;;16.27;;
42098;SDS011;27758;55.900;8.516;2023-03-14T01:49:26;80.20;;;17.02;;
42098;SDS011;27758;55.900;8.516;2023-03-14T01:54:55;97.13;;;16.90;;
42098;SDS011;27758;55.900;8.516;2023-03-14T01:57:46;93.35;;;16.42;;
42098;SDS011;27758;55.900;8.516;2023-03-14T02:00:16;90.55;;;18.45;;
42098;SDS011;27758;55.900;8.516;2023-03-14T02:02:48;94.43;;;17.08;;
42098;SDS011;27758;55.900;8.516;2023-03-14T02:05:28;89.63;;;16.17;;
42098;SDS011;27758;55.900;8.516;2023-03-14T02:07:59;94.93;;;17.73;;
42098;SDS011;27758;55.900;8.516;2023-03-14T02:10:29;108.65;;;16.02;;
42098;SDS011;27758;55.900;8.516;2023-03-14T02:12:58;96.85;;;15.85;;
42098;SDS011;27758;55.900;8.516;2023-03-14T02:15:26;91.63;;;15.90;;
42098;SDS011;27758;55.900;8.516;2023-03-14T02:17:52;97.07;;;15.77;;
42098;SDS011;27758;55.900;8.516;2023-03-14T02:22:50;83.20;;;15.93;;
42098;SDS011;27758;55.900;8.516;2023-03-14T02:28:26;91.82;;;15.05;;
42098;SDS011;27758;55.900;8.516;2023-03-14T02:30:51;75.35;;;14.73;;
42098;SDS011;27758;55.900;8.516;2023-03-14T02:33:18;89.78;;;14.43;;
42098;SDS011;27758;55.900;8.516;2023-03-14T02:39:04;38.60;;;6.82;;
42098;SDS011;27758;55.900;8.516;2023-03-14T02:41:29;11.68;;;2.13;;
42098;SDS011;27758;55.900;8.516;2023-03-14T02:43:55;4.18;;;1.83;;
42098;SDS011;27758;55.900;8.516;2023-03-14T02:46:21;6.40;;;2.42;;
42098;SDS011;27758;55.900;8.516;2023-03-14T02:48:48;4.88;;;0.80;;
42098;SDS011;27758;55.900;8.516;2023-03-14T02:51:16;5.95;;;1.70;;
42098;SDS011;27758;55.900;8.516;2023-03-14T02:53:42;5.68;;;1.00;;
42098;SDS011;27758;55.900;8.516;2023-03-14T02:56:08;8.70;;;1.50;;
42098;SDS011;27758;55.900;8.516;2023-03-14T02:58:34;4.20;;;1.13;;
42098;SDS011;27758;55.900;8.516;2023-03-14T03:01:00;4.63;;;1.27;;
42098;SDS011;27758;55.900;8.516;2023-03-14T03:03:26;5.70;;;1.13;;
42098;SDS011;27758;55.900;8.516;2023-03-14T03:05:53;12.00;;;1.00;;
42098;SDS011;27758;55.900;8.516;2023-03-14T03:08:20;9.35;;;1.40;;
42098;SDS011;27758;55.900;8.516;2023-03-14T03:10:47;3.80;;;0.88;;
42098;SDS011;27758;55.900;8.516;2023-03-14T03:13:13;7.80;;;1.27;;
42098;SDS011;27758;55.900;8.516;2023-03-14T03:15:39;3.85;;;0.90;;
42098;SDS011;27758;55.900;8.516;2023-03-14T03:18:06;4.90;;;0.80;;
42098;SDS011;27758;55.900;8.516;2023-03-14T03:20:32;3.60;;;0.98;;
42098;SDS011;27758;55.900;8.516;2023-03-14T03:23:00;4.35;;;1.02;;
42098;SDS011;27758;55.900;8.516;2023-03-14T03:25:26;2.95;;;1.02;;
42098;SDS011;27758;55.900;8.516;2023-03-14T03:27:52;7.60;;;1.33;;
42098;SDS011;27758;55.900;8.516;2023-03-14T03:30:18;4.75;;;1.00;;
42098;SDS011;27758;55.900;8.516;2023-03-14T03:32:44;8.93;;;1.77;;
42098;SDS011;27758;55.900;8.516;2023-03-14T03:35:10;14.00;;;2.33;;
42098;SDS011;27758;55.900;8.516;2023-03-14T03:37:35;10.82;;;2.38;;
42098;SDS011;27758;55.900;8.516;2023-03-14T03:40:01;9.35;;;1.55;;
42098;SDS011;27758;55.900;8.516;2023-03-14T03:42:30;13.77;;;3.10;;
42098;SDS011;27758;55.900;8.516;2023-03-14T03:44:57;19.20;;;2.42;;
42098;SDS011;27758;55.900;8.516;2023-03-14T03:47:22;26.40;;;3.75;;
42098;SDS011;27758;55.900;8.516;2023-03-14T03:49:48;15.02;;;2.70;;
42098;SDS011;27758;55.900;8.516;2023-03-14T03:52:14;19.02;;;2.95;;
42098;SDS011;27758;55.900;8.516;2023-03-14T03:54:39;23.55;;;4.40;;
42098;SDS011;27758;55.900;8.516;2023-03-14T03:57:05;25.95;;;3.45;;
42098;SDS011;27758;55.900;8.516;2023-03-14T03:59:31;16.98;;;3.70;;
42098;SDS011;27758;55.900;8.516;2023-03-14T04:01:56;23.52;;;4.28;;
42098;SDS011;27758;55.900;8.516;2023-03-14T04:04:22;27.10;;;4.57;;
42098;SDS011;27758;55.900;8.516;2023-03-14T04:06:48;25.02;;;3.72;;
42098;SDS011;27758;55.900;8.516;2023-03-14T04:09:14;26.98;;;4.00;;
42098;SDS011;27758;55.900;8.516;2023-03-14T04:11:39;31.60;;;3.75;;
42098;SDS011;27758;55.900;8.516;2023-03-14T04:14:06;26.73;;;4.95;;
42098;SDS011;27758;55.900;8.516;2023-03-14T04:16:32;33.65;;;5.57;;
42098;SDS011;27758;55.900;8.516;2023-03-14T04:18:59;23.33;;;3.78;;
42098;SDS011;27758;55.900;8.516;2023-03-14T04:21:25;18.00;;;3.42;;
42098;SDS011;27758;55.900;8.516;2023-03-14T04:23:51;27.35;;;3.45;;
42098;SDS011;27758;55.900;8.516;2023-03-14T04:26:17;23.17;;;4.18;;
42098;SDS011;27758;55.900;8.516;2023-03-14T04:28:43;21.38;;;4.00;;
42098;SDS011;27758;55.900;8.516;2023-03-14T04:31:09;29.60;;;4.72;;
42098;SDS011;27758;55.900;8.516;2023-03-14T04:33:36;25.63;;;3.92;;
42098;SDS011;27758;55.900;8.516;2023-03-14T04:36:03;25.75;;;3.65;;
42098;SDS011;27758;55.900;8.516;2023-03-14T04:38:29;14.95;;;2.40;;
42098;SDS011;27758;55.900;8.516;2023-03-14T04:40:55;13.40;;;2.58;;
42098;SDS011;27758;55.900;8.516;2023-03-14T04:43:21;12.63;;;2.53;;
42098;SDS011;27758;55.900;8.516;2023-03-14T04:45:46;17.73;;;2.63;;
42098;SDS011;27758;55.900;8.516;2023-03-14T04:48:12;16.50;;;2.30;;
42098;SDS011;27758;55.900;8.516;2023-03-14T04:50:38;13.48;;;2.35;;
42098;SDS011;27758;55.900;8.516;2023-03-14T04:53:04;10.18;;;2.20;;
42098;SDS011;27758;55.900;8.516;2023-03-14T04:55:30;19.73;;;2.20;;
42098;SDS011;27758;55.900;8.516;2023-03-14T04:57:57;17.13;;;2.67;;
42098;SDS011;27758;55.900;8.516;2023-03-14T05:00:23;15.63;;;2.78;;
42098;SDS011;27758;55.900;8.516;2023-03-14T05:02:49;13.65;;;3.17;;
42098;SDS011;27758;55.900;8.516;2023-03-14T05:05:15;15.45;;;2.55;;
42098;SDS011;27758;55.900;8.516;2023-03-14T05:07:41;12.30;;;2.60;;
42098;SDS011;27758;55.900;8.516;2023-03-14T05:10:07;9.48;;;2.30;;
42098;SDS011;27758;55.900;8.516;2023-03-14T05:12:33;11.88;;;1.90;;
42098;SDS011;27758;55.900;8.516;2023-03-14T05:14:59;7.95;;;2.40;;
42098;SDS011;27758;55.900;8.516;2023-03-14T05:17:25;14.07;;;3.22;;
42098;SDS011;27758;55.900;8.516;2023-03-14T05:19:50;11.05;;;1.67;;
42098;SDS011;27758;55.900;8.516;2023-03-14T05:22:17;17.88;;;2.90;;
42098;SDS011;27758;55.900;8.516;2023-03-14T05:24:42;15.95;;;3.45;;
42098;SDS011;27758;55.900;8.516;2023-03-14T05:27:08;13.85;;;3.20;;
42098;SDS011;27758;55.900;8.516;2023-03-14T05:29:34;12.65;;;2.47;;
42098;SDS011;27758;55.900;8.516;2023-03-14T05:31:59;39.00;;;11.57;;
42098;SDS011;27758;55.900;8.516;2023-03-14T05:34:25;32.35;;;11.07;;
42098;SDS011;27758;55.900;8.516;2023-03-14T05:36:51;18.83;;;5.82;;
42098;SDS011;27758;55.900;8.516;2023-03-14T05:39:17;26.65;;;10.32;;
42098;SDS011;27758;55.900;8.516;2023-03-14T05:41:43;25.92;;;9.60;;
42098;SDS011;27758;55.900;8.516;2023-03-14T05:44:14;20.40;;;6.15;;
42098;SDS011;27758;55.900;8.516;2023-03-14T05:46:40;18.80;;;5.88;;
42098;SDS011;27758;55.900;8.516;2023-03-14T05:49:06;22.83;;;6.65;;
42098;SDS011;27758;55.900;8.516;2023-03-14T05:51:31;21.65;;;5.25;;
42098;SDS011;27758;55.900;8.516;2023-03-14T05:53:57;16.15;;;3.30;;
42098;SDS011;27758;55.900;8.516;2023-03-14T05:56:23;23.00;;;4.30;;
42098;SDS011;27758;55.900;8.516;2023-03-14T05:58:48;16.30;;;3.47;;
42098;SDS011;27758;55.900;8.516;2023-03-14T06:01:14;23.02;;;4.88;;
42098;SDS011;27758;55.900;8.516;2023-03-14T06:03:40;17.33;;;3.08;;
42098;SDS011;27758;55.900;8.516;2023-03-14T06:06:05;15.10;;;3.25;;
42098;SDS011;27758;55.900;8.516;2023-03-14T06:08:31;21.10;;;2.67;;
42098;SDS011;27758;55.900;8.516;2023-03-14T06:10:57;18.98;;;2.92;;
42098;SDS011;27758;55.900;8.516;2023-03-14T06:13:23;22.88;;;3.50;;
42098;SDS011;27758;55.900;8.516;2023-03-14T06:15:49;13.18;;;2.75;;
42098;SDS011;27758;55.900;8.516;2023-03-14T06:18:14;26.30;;;3.17;;
42098;SDS011;27758;55.900;8.516;2023-03-14T06:20:40;18.70;;;4.22;;
42098;SDS011;27758;55.900;8.516;2023-03-14T06:23:06;18.88;;;4.22;;
42098;SDS011;27758;55.900;8.516;2023-03-14T06:25:33;17.75;;;3.05;;
42098;SDS011;27758;55.900;8.516;2023-03-14T06:28:00;17.27;;;2.88;;
42098;SDS011;27758;55.900;8.516;2023-03-14T06:30:26;19.38;;;2.78;;
42098;SDS011;27758;55.900;8.516;2023-03-14T06:32:52;21.25;;;4.25;;
42098;SDS011;27758;55.900;8.516;2023-03-14T06:35:18;20.15;;;2.78;;
42098;SDS011;27758;55.900;8.516;2023-03-14T06:37:43;21.17;;;3.47;;
42098;SDS011;27758;55.900;8.516;2023-03-14T06:40:10;18.75;;;3.47;;
42098;SDS011;27758;55.900;8.516;2023-03-14T06:42:39;16.88;;;3.13;;
42098;SDS011;27758;55.900;8.516;2023-03-14T06:45:04;20.90;;;3.33;;
42098;SDS011;27758;55.900;8.516;2023-03-14T06:47:31;12.60;;;2.47;;
42098;SDS011;27758;55.900;8.516;2023-03-14T06:49:56;22.45;;;3.17;;
42098;SDS011;27758;55.900;8.516;2023-03-14T06:52:22;15.38;;;2.55;;
42098;SDS011;27758;55.900;8.516;2023-03-14T06:54:48;16.35;;;2.67;;
42098;SDS011;27758;55.900;8.516;2023-03-14T06:57:13;19.95;;;3.10;;
42098;SDS011;27758;55.900;8.516;2023-03-14T06:59:39;14.18;;;2.30;;
42098;SDS011;27758;55.900;8.516;2023-03-14T07:02:07;14.32;;;3.97;;
42098;SDS011;27758;55.900;8.516;2023-03-14T07:04:35;10.00;;;2.25;;
42098;SDS011;27758;55.900;8.516;2023-03-14T07:07:04;18.65;;;3.92;;
42098;SDS011;27758;55.900;8.516;2023-03-14T07:09:30;19.48;;;4.35;;
42098;SDS011;27758;55.900;8.516;2023-03-14T07:11:57;20.80;;;3.42;;
42098;SDS011;27758;55.900;8.516;2023-03-14T07:14:23;13.80;;;3.30;;
42098;SDS011;27758;55.900;8.516;2023-03-14T07:16:49;17.80;;;3.05;;
42098;SDS011;27758;55.900;8.516;2023-03-14T07:19:14;14.35;;;3.08;;
42098;SDS011;27758;55.900;8.516;2023-03-14T07:21:40;17.35;;;3.30;;
42098;SDS011;27758;55.900;8.516;2023-03-14T07:24:06;17.92;;;2.80;;
42098;SDS011;27758;55.900;8.516;2023-03-14T07:26:32;20.23;;;3.22;;
42098;SDS011;27758;55.900;8.516;2023-03-14T07:28:57;16.92;;;3.22;;
42098;SDS011;27758;55.900;8.516;2023-03-14T07:31:23;23.98;;;4.45;;
42098;SDS011;27758;55.900;8.516;2023-03-14T07:33:49;19.45;;;3.88;;
42098;SDS011;27758;55.900;8.516;2023-03-14T07:36:15;20.33;;;3.58;;
42098;SDS011;27758;55.900;8.516;2023-03-14T07:38:43;23.88;;;3.53;;
42098;SDS011;27758;55.900;8.516;2023-03-14T07:41:09;25.48;;;3.55;;
42098;SDS011;27758;55.900;8.516;2023-03-14T07:43:34;21.42;;;3.35;;
42098;SDS011;27758;55.900;8.516;2023-03-14T07:46:00;17.85;;;3.30;;
42098;SDS011;27758;55.900;8.516;2023-03-14T07:48:26;15.48;;;2.58;;
42098;SDS011;27758;55.900;8.516;2023-03-14T07:50:52;12.95;;;2.65;;
42098;SDS011;27758;55.900;8.516;2023-03-14T07:53:19;11.52;;;2.03;;
42098;SDS011;27758;55.900;8.516;2023-03-14T07:55:46;23.48;;;2.85;;
42098;SDS011;27758;55.900;8.516;2023-03-14T07:58:13;19.90;;;3.00;;
42098;SDS011;27758;55.900;8.516;2023-03-14T08:00:39;29.92;;;3.47;;
42098;SDS011;27758;55.900;8.516;2023-03-14T08:03:05;16.02;;;3.17;;
42098;SDS011;27758;55.900;8.516;2023-03-14T08:05:33;21.63;;;3.42;;
42098;SDS011;27758;55.900;8.516;2023-03-14T08:08:02;16.48;;;3.25;;
42098;SDS011;27758;55.900;8.516;2023-03-14T08:10:29;18.83;;;2.70;;
42098;SDS011;27758;55.900;8.516;2023-03-14T08:12:56;19.45;;;3.53;;
42098;SDS011;27758;55.900;8.516;2023-03-14T08:15:23;19.95;;;3.13;;
42098;SDS011;27758;55.900;8.516;2023-03-14T08:17:49;24.13;;;3.00;;
42098;SDS011;27758;55.900;8.516;2023-03-14T08:20:23;16.42;;;2.35;;
42098;SDS011;27758;55.900;8.516;2023-03-14T08:22:50;14.55;;;2.95;;
42098;SDS011;27758;55.900;8.516;2023-03-14T08:25:17;13.85;;;2.40;;
42098;SDS011;27758;55.900;8.516;2023-03-14T08:27:43;12.88;;;1.88;;
42098;SDS011;27758;55.900;8.516;2023-03-14T08:30:10;14.50;;;2.50;;
42098;SDS011;27758;55.900;8.516;2023-03-14T08:32:37;15.45;;;3.35;;
42098;SDS011;27758;55.900;8.516;2023-03-14T08:35:04;19.98;;;3.17;;
42098;SDS011;27758;55.900;8.516;2023-03-14T08:37:30;12.48;;;2.13;;
42098;SDS011;27758;55.900;8.516;2023-03-14T08:39:57;13.73;;;2.17;;
42098;SDS011;27758;55.900;8.516;2023-03-14T08:42:23;22.50;;;4.10;;
42098;SDS011;27758;55.900;8.516;2023-03-14T08:44:50;18.77;;;2.92;;
42098;SDS011;27758;55.900;8.516;2023-03-14T08:47:16;25.70;;;3.60;;
42098;SDS011;27758;55.900;8.516;2023-03-14T08:49:41;13.32;;;2.25;;
42098;SDS011;27758;55.900;8.516;2023-03-14T08:52:07;14.38;;;2.13;;
42098;SDS011;27758;55.900;8.516;2023-03-14T08:54:33;11.48;;;2.40;;
42098;SDS011;27758;55.900;8.516;2023-03-14T08:56:59;16.17;;;3.22;;
42098;SDS011;27758;55.900;8.516;2023-03-14T08:59:25;16.42;;;2.40;;
42098;SDS011;27758;55.900;8.516;2023-03-14T09:01:50;36.80;;;3.45;;
42098;SDS011;27758;55.900;8.516;2023-03-14T09:04:16;16.77;;;2.60;;
42098;SDS011;27758;55.900;8.516;2023-03-14T09:06:42;16.73;;;2.78;;
42098;SDS011;27758;55.900;8.516;2023-03-14T09:09:08;17.45;;;2.53;;
42098;SDS011;27758;55.900;8.516;2023-03-14T09:11:34;13.77;;;2.80;;
42098;SDS011;27758;55.900;8.516;2023-03-14T09:14:00;12.13;;;1.95;;
42098;SDS011;27758;55.900;8.516;2023-03-14T09:16:25;15.13;;;2.60;;
42098;SDS011;27758;55.900;8.516;2023-03-14T09:18:51;16.38;;;2.70;;
42098;SDS011;27758;55.900;8.516;2023-03-14T09:21:22;11.48;;;2.10;;
42098;SDS011;27758;55.900;8.516;2023-03-14T09:23:48;16.23;;;2.53;;
42098;SDS011;27758;55.900;8.516;2023-03-14T09:26:14;12.27;;;2.60;;
42098;SDS011;27758;55.900;8.516;2023-03-14T09:28:40;8.43;;;1.92;;
42098;SDS011;27758;55.900;8.516;2023-03-14T09:31:06;12.52;;;1.80;;
42098;SDS011;27758;55.900;8.516;2023-03-14T09:33:33;10.82;;;2.47;;
42098;SDS011;27758;55.900;8.516;2023-03-14T09:36:00;11.70;;;2.28;;
42098;SDS011;27758;55.900;8.516;2023-03-14T09:38:26;15.18;;;2.45;;
42098;SDS011;27758;55.900;8.516;2023-03-14T09:40:53;8.32;;;2.03;;
42098;SDS011;27758;55.900;8.516;2023-03-14T09:43:20;14.70;;;2.55;;
42098;SDS011;27758;55.900;8.516;2023-03-14T09:45:47;8.55;;;2.10;;
42098;SDS011;27758;55.900;8.516;2023-03-14T09:48:15;8.90;;;2.25;;
42098;SDS011;27758;55.900;8.516;2023-03-14T09:50:45;10.52;;;2.03;;
42098;SDS011;27758;55.900;8.516;2023-03-14T09:53:57;13.10;;;1.92;;
42098;SDS011;27758;55.900;8.516;2023-03-14T09:56:12;10.85;;;2.30;;
42098;SDS011;27758;55.900;8.516;2023-03-14T09:58:43;13.35;;;2.20;;
42098;SDS011;27758;55.900;8.516;2023-03-14T10:01:14;17.42;;;2.67;;
42098;SDS011;27758;55.900;8.516;2023-03-14T10:03:43;9.27;;;1.70;;
42098;SDS011;27758;55.900;8.516;2023-03-14T10:06:11;19.05;;;2.55;;
42098;SDS011;27758;55.900;8.516;2023-03-14T10:08:39;8.73;;;1.92;;
42098;SDS011;27758;55.900;8.516;2023-03-14T10:11:13;10.25;;;2.28;;
42098;SDS011;27758;55.900;8.516;2023-03-14T10:16:41;11.93;;;2.30;;
42098;SDS011;27758;55.900;8.516;2023-03-14T10:19:13;12.52;;;2.13;;
42098;SDS011;27758;55.900;8.516;2023-03-14T10:21:49;21.63;;;3.88;;
42098;SDS011;27758;55.900;8.516;2023-03-14T10:27:06;13.15;;;2.00;;
42098;SDS011;27758;55.900;8.516;2023-03-14T10:29:52;9.80;;;1.95;;
42098;SDS011;27758;55.900;8.516;2023-03-14T10:32:21;13.02;;;1.83;;
42098;SDS011;27758;55.900;8.516;2023-03-14T10:35:04;15.15;;;2.42;;
42098;SDS011;27758;55.900;8.516;2023-03-14T10:37:32;12.73;;;2.42;;
42098;SDS011;27758;55.900;8.516;2023-03-14T10:39:58;10.23;;;1.95;;
42098;SDS011;27758;55.900;8.516;2023-03-14T10:42:34;12.75;;;2.13;;
42098;SDS011;27758;55.900;8.516;2023-03-14T10:45:21;18.02;;;3.10;;
42098;SDS011;27758;55.900;8.516;2023-03-14T10:47:48;15.57;;;2.80;;
42098;SDS011;27758;55.900;8.516;2023-03-14T10:50:22;14.27;;;2.10;;
42098;SDS011;27758;55.900;8.516;2023-03-14T10:52:51;15.30;;;3.60;;
42098;SDS011;27758;55.900;8.516;2023-03-14T10:55:17;11.02;;;2.72;;
42098;SDS011;27758;55.900;8.516;2023-03-14T10:57:43;17.27;;;3.25;;
42098;SDS011;27758;55.900;8.516;2023-03-14T11:00:19;14.32;;;3.13;;
42098;SDS011;27758;55.900;8.516;2023-03-14T11:07:53;11.52;;;2.30;;
42098;SDS011;27758;55.900;8.516;2023-03-14T11:29:20;11.55;;;2.95;;
42098;SDS011;27758;55.900;8.516;2023-03-14T11:31:54;13.98;;;2.75;;
42098;SDS011;27758;55.900;8.516;2023-03-14T11:34:26;9.68;;;2.03;;
42098;SDS011;27758;55.900;8.516;2023-03-14T11:39:51;14.20;;;3.28;;
42098;SDS011;27758;55.900;8.516;2023-03-14T11:42:42;14.80;;;2.17;;
42098;SDS011;27758;55.900;8.516;2023-03-14T11:45:19;5.25;;;1.55;;
42098;SDS011;27758;55.900;8.516;2023-03-14T11:48:06;5.93;;;1.55;;
42098;SDS011;27758;55.900;8.516;2023-03-14T11:50:38;7.30;;;1.35;;
42098;SDS011;27758;55.900;8.516;2023-03-14T11:53:18;6.93;;;1.52;;
42098;SDS011;27758;55.900;8.516;2023-03-14T11:55:47;12.55;;;1.90;;
42098;SDS011;27758;55.900;8.516;2023-03-14T11:58:23;13.52;;;2.20;;
42098;SDS011;27758;55.900;8.516;2023-03-14T12:00:53;11.43;;;2.05;;
42098;SDS011;27758;55.900;8.516;2023-03-14T12:08:49;10.55;;;1.70;;
42098;SDS011;27758;55.900;8.516;2023-03-14T12:14:15;9.38;;;1.90;;
42098;SDS011;27758;55.900;8.516;2023-03-14T12:16:45;9.98;;;2.08;;
42098;SDS011;27758;55.900;8.516;2023-03-14T12:21:51;10.18;;;2.03;;
42098;SDS011;27758;55.900;8.516;2023-03-14T12:24:31;9.23;;;2.20;;
42098;SDS011;27758;55.900;8.516;2023-03-14T12:27:01;7.80;;;2.10;;
42098;SDS011;27758;55.900;8.516;2023-03-14T12:29:28;9.23;;;2.08;;
42098;SDS011;27758;55.900;8.516;2023-03-14T12:34:45;6.65;;;1.48;;
42098;SDS011;27758;55.900;8.516;2023-03-14T12:37:17;6.65;;;1.13;;
42098;SDS011;27758;55.900;8.516;2023-03-14T12:42:54;6.32;;;1.70;;
42098;SDS011;27758;55.900;8.516;2023-03-14T12:45:29;13.05;;;2.60;;
42098;SDS011;27758;55.900;8.516;2023-03-14T12:50:32;17.08;;;2.17;;
42098;SDS011;27758;55.900;8.516;2023-03-14T13:01:15;10.35;;;1.65;;
42098;SDS011;27758;55.900;8.516;2023-03-14T13:03:44;9.57;;;1.80;;
42098;SDS011;27758;55.900;8.516;2023-03-14T13:06:11;15.98;;;2.30;;
42098;SDS011;27758;55.900;8.516;2023-03-14T13:08:56;10.75;;;1.58;;
42098;SDS011;27758;55.900;8.516;2023-03-14T13:11:22;12.75;;;2.63;;
42098;SDS011;27758;55.900;8.516;2023-03-14T13:13:57;14.02;;;2.38;;
42098;SDS011;27758;55.900;8.516;2023-03-14T13:16:24;9.95;;;2.92;;
42098;SDS011;27758;55.900;8.516;2023-03-14T13:18:58;17.30;;;2.20;;
42098;SDS011;27758;55.900;8.516;2023-03-14T13:21:27;14.77;;;2.40;;
42098;SDS011;27758;55.900;8.516;2023-03-14T13:24:01;17.80;;;2.20;;
42098;SDS011;27758;55.900;8.516;2023-03-14T13:26:32;10.07;;;1.92;;
42098;SDS011;27758;55.900;8.516;2023-03-14T13:29:27;11.60;;;1.85;;
42098;SDS011;27758;55.900;8.516;2023-03-14T13:32:12;11.85;;;1.88;;
42098;SDS011;27758;55.900;8.516;2023-03-14T13:34:52;8.32;;;1.52;;
42098;SDS011;27758;55.900;8.516;2023-03-14T13:37:25;7.72;;;1.40;;
42098;SDS011;27758;55.900;8.516;2023-03-14T13:39:52;14.18;;;2.25;;
42098;SDS011;27758;55.900;8.516;2023-03-14T13:42:20;11.27;;;1.50;;
42098;SDS011;27758;55.900;8.516;2023-03-14T13:44:51;11.65;;;1.58;;
42098;SDS011;27758;55.900;8.516;2023-03-14T13:47:19;6.22;;;1.38;;
42098;SDS011;27758;55.900;8.516;2023-03-14T13:49:46;10.52;;;2.25;;
42098;SDS011;27758;55.900;8.516;2023-03-14T13:52:30;10.25;;;1.05;;
42098;SDS011;27758;55.900;8.516;2023-03-14T13:54:57;13.23;;;1.95;;
42098;SDS011;27758;55.900;8.516;2023-03-14T13:57:25;7.07;;;1.52;;
42098;SDS011;27758;55.900;8.516;2023-03-14T14:00:04;7.32;;;1.50;;
42098;SDS011;27758;55.900;8.516;2023-03-14T14:02:35;14.57;;;1.83;;
42098;SDS011;27758;55.900;8.516;2023-03-14T14:07:33;10.18;;;1.42;;
42098;SDS011;27758;55.900;8.516;2023-03-14T14:09:59;8.35;;;1.23;;
42098;SDS011;27758;55.900;8.516;2023-03-14T14:12:30;8.32;;;1.73;;
42098;SDS011;27758;55.900;8.516;2023-03-14T14:15:37;13.77;;;2.70;;
42098;SDS011;27758;55.900;8.516;2023-03-14T14:18:01;8.50;;;1.77;;
42098;SDS011;27758;55.900;8.516;2023-03-14T14:20:30;10.65;;;2.17;;
42098;SDS011;27758;55.900;8.516;2023-03-14T14:23:04;15.25;;;2.88;;
42098;SDS011;27758;55.900;8.516;2023-03-14T14:25:31;22.60;;;2.60;;
42098;SDS011;27758;55.900;8.516;2023-03-14T14:27:58;9.43;;;1.83;;
42098;SDS011;27758;55.900;8.516;2023-03-14T14:30:25;19.48;;;3.30;;
42098;SDS011;27758;55.900;8.516;2023-03-14T14:32:53;10.13;;;1.83;;
42098;SDS011;27758;55.900;8.516;2023-03-14T14:35:37;7.93;;;2.58;;
42098;SDS011;27758;55.900;8.516;2023-03-14T14:38:02;16.27;;;2.72;;
42098;SDS011;27758;55.900;8.516;2023-03-14T14:40:42;8.88;;;1.95;;
42098;SDS011;27758;55.900;8.516;2023-03-14T14:43:10;9.85;;;1.30;;
42098;SDS011;27758;55.900;8.516;2023-03-14T14:45:47;7.60;;;1.60;;
42098;SDS011;27758;55.900;8.516;2023-03-14T14:48:17;5.60;;;1.17;;
42098;SDS011;27758;55.900;8.516;2023-03-14T14:50:58;8.90;;;1.75;;
42098;SDS011;27758;55.900;8.516;2023-03-14T14:56:15;10.50;;;1.10;;
42098;SDS011;27758;55.900;8.516;2023-03-14T14:58:59;4.20;;;0.95;;
42098;SDS011;27758;55.900;8.516;2023-03-14T15:01:36;7.93;;;0.93;;
42098;SDS011;27758;55.900;8.516;2023-03-14T15:04:09;9.85;;;1.38;;
42098;SDS011;27758;55.900;8.516;2023-03-14T15:06:38;11.25;;;1.85;;
42098;SDS011;27758;55.900;8.516;2023-03-14T15:09:08;9.52;;;1.83;;
42098;SDS011;27758;55.900;8.516;2023-03-14T15:11:37;13.10;;;2.05;;
42098;SDS011;27758;55.900;8.516;2023-03-14T15:14:03;12.23;;;1.88;;
42098;SDS011;27758;55.900;8.516;2023-03-14T15:16:29;11.77;;;2.08;;
42098;SDS011;27758;55.900;8.516;2023-03-14T15:18:58;6.15;;;1.83;;
42098;SDS011;27758;55.900;8.516;2023-03-14T15:21:27;9.02;;;1.90;;
42098;SDS011;27758;55.900;8.516;2023-03-14T15:23:53;9.35;;;2.13;;
42098;SDS011;27758;55.900;8.516;2023-03-14T15:26:26;17.58;;;2.17;;
42098;SDS011;27758;55.900;8.516;2023-03-14T15:28:53;11.38;;;2.95;;
42098;SDS011;27758;55.900;8.516;2023-03-14T15:31:19;11.30;;;1.67;;
42098;SDS011;27758;55.900;8.516;2023-03-14T15:33:46;13.77;;;2.03;;
42098;SDS011;27758;55.900;8.516;2023-03-14T15:36:25;15.23;;;1.90;;
42098;SDS011;27758;55.900;8.516;2023-03-14T15:38:52;9.93;;;1.63;;
42098;SDS011;27758;55.900;8.516;2023-03-14T15:41:20;17.60;;;3.00;;
42098;SDS011;27758;55.900;8.516;2023-03-14T15:43:46;12.88;;;2.17;;
42098;SDS011;27758;55.900;8.516;2023-03-14T15:46:13;17.33;;;2.33;;
42098;SDS011;27758;55.900;8.516;2023-03-14T15:48:39;14.20;;;2.67;;
42098;SDS011;27758;55.900;8.516;2023-03-14T15:51:06;13.70;;;3.25;;
42098;SDS011;27758;55.900;8.516;2023-03-14T15:53:35;13.57;;;2.08;;
42098;SDS011;27758;55.900;8.516;2023-03-14T15:56:07;12.45;;;2.05;;
42098;SDS011;27758;55.900;8.516;2023-03-14T15:58:36;12.35;;;2.78;;
42098;SDS011;27758;55.900;8.516;2023-03-14T16:01:05;15.70;;;2.42;;